Time;durP1;ratioP1;P1;durP2;ratioP2;P2;SDS_P1;SDS_P2;PMS_P1;PMS_P2;Temp;Humidity;BMP_temperature;BMP_pressure;BME280_temperature;BME280_humidity;BME280_pressure;Samples;Min_cycle;Max_cycle;Signal;HPM_P1;HPM_P2
2023/05/12 00:01:53;;;;;;;21.37;14.57;;;13.60;99.90;;;;;;5026777;28;20191;-84
2023/05/12 00:04:19;;;;;;;20.87;14.00;;;13.60;99.90;;;;;;5011516;28;20249;-85
2023/05/12 00:06:44;;;;;;;22.20;13.80;;;13.60;99.90;;;;;;5011789;28;20186;-85
2023/05/12 00:09:10;;;;;;;24.03;14.17;;;13.60;99.90;;;;;;5010255;28;20213;-85
2023/05/12 00:11:37;;;;;;;20.13;14.00;;;13.60;99.90;;;;;;5012070;28;20231;-85
2023/05/12 00:14:02;;;;;;;28.43;14.00;;;13.60;99.90;;;;;;5011683;28;20667;-84
2023/05/12 00:16:28;;;;;;;20.63;14.27;;;13.60;99.90;;;;;;5011963;28;20177;-84
2023/05/12 00:18:53;;;;;;;23.43;12.73;;;13.60;99.90;;;;;;5013167;28;20208;-84
2023/05/12 00:21:19;;;;;;;17.27;12.50;;;13.60;99.90;;;;;;5014329;28;20173;-85
2023/05/12 00:23:45;;;;;;;17.03;11.93;;;13.60;99.90;;;;;;5015476;28;20185;-85
2023/05/12 00:26:10;;;;;;;15.53;11.13;;;13.60;99.90;;;;;;5009821;28;20616;-85
2023/05/12 00:28:36;;;;;;;15.17;11.30;;;13.60;99.90;;;;;;5009733;28;20268;-85
2023/05/12 00:31:05;;;;;;;13.87;10.07;;;13.50;99.90;;;;;;5011513;28;20209;-84
2023/05/12 00:33:30;;;;;;;10.83;8.27;;;13.60;99.90;;;;;;5026541;28;20664;-85
2023/05/12 00:35:56;;;;;;;11.00;8.30;;;13.50;99.90;;;;;;5009796;28;20196;-85
2023/05/12 00:38:21;;;;;;;7.00;5.97;;;13.50;99.90;;;;;;5010800;28;20184;-86
2023/05/12 00:40:47;;;;;;;9.77;6.30;;;13.40;99.90;;;;;;5009230;28;20201;-86
2023/05/12 00:43:13;;;;;;;6.43;5.20;;;13.40;99.90;;;;;;5011060;28;20180;-86
2023/05/12 00:45:38;;;;;;;7.37;5.80;;;13.40;99.90;;;;;;5025816;28;20539;-86
2023/05/12 00:48:05;;;;;;;6.63;5.93;;;13.30;99.90;;;;;;5010722;28;20185;-86
2023/05/12 00:50:31;;;;;;;7.30;5.40;;;13.30;99.90;;;;;;5009089;28;20565;-86
2023/05/12 00:52:57;;;;;;;6.10;5.07;;;13.40;99.90;;;;;;5010551;28;20196;-86
2023/05/12 00:55:24;;;;;;;8.17;6.30;;;13.30;99.90;;;;;;5010608;28;20173;-85
2023/05/12 00:57:49;;;;;;;5.57;4.97;;;13.30;99.90;;;;;;5009515;28;20259;-85
2023/05/12 01:00:15;;;;;;;6.93;5.97;;;13.30;99.90;;;;;;5010823;28;20584;-86
2023/05/12 01:02:41;;;;;;;7.97;6.57;;;13.30;99.90;;;;;;5009542;28;20211;-86
2023/05/12 01:05:08;;;;;;;6.90;6.10;;;13.30;99.90;;;;;;5009327;28;20185;-85
2023/05/12 01:07:35;;;;;;;8.47;6.20;;;13.20;99.90;;;;;;5009237;28;20181;-86
2023/05/12 01:10:00;;;;;;;7.57;6.67;;;13.20;99.90;;;;;;5009738;28;20293;-85
2023/05/12 01:12:26;;;;;;;8.00;6.87;;;13.20;99.90;;;;;;5009109;28;20300;-85
2023/05/12 01:14:54;;;;;;;7.97;7.10;;;13.20;99.90;;;;;;5010297;28;20169;-86
2023/05/12 01:17:26;;;;;;;10.30;8.30;;;13.20;99.90;;;;;;5010272;28;20173;-86
2023/05/12 01:19:55;;;;;;;10.53;7.77;;;13.20;99.90;;;;;;5025610;28;20220;-86
2023/05/12 01:22:21;;;;;;;8.53;7.17;;;13.30;99.90;;;;;;5009549;28;20181;-86
2023/05/12 01:24:52;;;;;;;10.50;8.10;;;13.20;99.90;;;;;;5010477;28;20314;-86
2023/05/12 01:27:20;;;;;;;9.57;7.70;;;13.30;99.90;;;;;;5025555;28;20181;-85
2023/05/12 01:29:47;;;;;;;10.50;7.80;;;13.30;99.90;;;;;;5025654;28;20205;-85
2023/05/12 01:32:14;;;;;;;11.50;7.97;;;13.30;99.90;;;;;;5009682;28;20181;-84
2023/05/12 01:34:41;;;;;;;11.07;8.20;;;13.30;99.90;;;;;;5025898;28;20177;-85
2023/05/12 01:37:08;;;;;;;11.50;8.57;;;13.30;99.90;;;;;;5009843;28;20194;-85
2023/05/12 01:39:34;;;;;;;10.70;7.57;;;13.40;99.90;;;;;;5010750;28;20196;-85
2023/05/12 01:41:59;;;;;;;9.83;6.30;;;13.40;99.90;;;;;;5009838;28;20177;-84
2023/05/12 01:44:25;;;;;;;9.37;7.23;;;13.40;99.90;;;;;;5011346;28;20166;-85
2023/05/12 01:46:51;;;;;;;8.53;7.00;;;13.40;99.90;;;;;;5009136;28;20184;-84
2023/05/12 01:49:16;;;;;;;10.33;7.57;;;13.40;99.90;;;;;;5026157;28;20211;-84
2023/05/12 01:51:42;;;;;;;8.83;7.27;;;13.40;99.90;;;;;;5009943;28;20299;-84
2023/05/12 01:54:07;;;;;;;9.67;8.00;;;13.40;99.90;;;;;;5009271;28;20173;-84
2023/05/12 01:56:33;;;;;;;11.07;8.07;;;13.40;99.90;;;;;;5011068;28;20255;-84
2023/05/12 01:58:58;;;;;;;10.47;7.63;;;13.40;99.90;;;;;;5010514;28;20193;-84
2023/05/12 02:01:27;;;;;;;10.13;8.00;;;13.40;99.90;;;;;;5026615;28;20185;-84
2023/05/12 02:03:55;;;;;;;10.33;8.20;;;13.40;99.90;;;;;;5026424;28;20268;-84
2023/05/12 02:06:21;;;;;;;11.17;7.83;;;13.40;99.90;;;;;;5009601;28;20181;-83
2023/05/12 02:08:47;;;;;;;10.83;7.17;;;13.40;99.90;;;;;;5010641;28;20191;-84
2023/05/12 02:11:13;;;;;;;8.43;7.07;;;13.50;99.90;;;;;;5012827;28;20297;-84
2023/05/12 02:13:39;;;;;;;13.03;7.07;;;13.40;99.90;;;;;;5013274;28;20197;-84
2023/05/12 02:16:05;;;;;;;8.87;7.50;;;13.40;99.90;;;;;;5029614;28;20636;-84
2023/05/12 02:18:31;;;;;;;9.43;8.27;;;13.40;99.90;;;;;;5013317;28;20276;-85
2023/05/12 02:20:56;;;;;;;14.63;8.90;;;13.40;99.90;;;;;;5013869;28;20704;-84
2023/05/12 02:23:22;;;;;;;11.67;9.13;;;13.40;99.90;;;;;;5029698;28;20276;-84
2023/05/12 02:25:48;;;;;;;11.87;9.17;;;13.40;99.90;;;;;;5029279;28;20185;-84
2023/05/12 02:28:13;;;;;;;8.67;7.33;;;13.40;99.90;;;;;;5014973;28;20181;-83
2023/05/12 02:30:47;;;;;;;8.50;7.00;;;13.40;99.90;;;;;;5012310;28;20266;-84
2023/05/12 02:33:17;;;;;;;17.13;8.43;;;13.40;99.90;;;;;;5015053;28;20153;-84
2023/05/12 02:35:43;;;;;;;10.50;8.70;;;13.40;99.90;;;;;;5015201;28;20665;-86
2023/05/12 02:38:09;;;;;;;10.57;8.43;;;13.40;99.90;;;;;;5013512;28;20241;-84
2023/05/12 02:40:34;;;;;;;12.00;8.53;;;13.40;99.90;;;;;;5013024;28;20212;-84
2023/05/12 02:43:00;;;;;;;9.07;8.00;;;13.40;99.90;;;;;;5013121;28;20592;-84
2023/05/12 02:45:26;;;;;;;9.07;7.67;;;13.30;99.90;;;;;;5012659;28;20181;-84
2023/05/12 02:47:52;;;;;;;7.97;7.13;;;13.30;99.90;;;;;;5014363;28;20173;-84
2023/05/12 02:50:17;;;;;;;12.40;6.80;;;13.30;99.90;;;;;;5012656;28;20702;-84
2023/05/12 02:52:43;;;;;;;6.67;5.97;;;13.30;99.90;;;;;;5029383;28;20173;-85
2023/05/12 02:55:08;;;;;;;7.40;6.13;;;13.30;99.90;;;;;;5015697;28;20284;-84
2023/05/12 02:57:34;;;;;;;7.77;5.63;;;13.30;99.90;;;;;;5015445;28;20177;-84
2023/05/12 03:00:06;;;;;;;9.50;5.30;;;13.30;99.90;;;;;;5015039;28;20272;-84
2023/05/12 03:02:33;;;;;;;5.70;5.13;;;13.30;99.90;;;;;;5011633;28;20222;-84
2023/05/12 03:04:59;;;;;;;5.37;4.87;;;13.20;99.90;;;;;;5011585;28;20173;-85
2023/05/12 03:07:24;;;;;;;5.73;5.13;;;13.20;99.90;;;;;;5011718;28;20192;-84
2023/05/12 03:09:50;;;;;;;10.10;4.63;;;13.20;99.90;;;;;;5027843;28;20197;-84
2023/05/12 03:12:16;;;;;;;7.20;4.37;;;13.20;99.90;;;;;;5027543;28;20224;-84
2023/05/12 03:14:41;;;;;;;8.03;4.43;;;13.20;99.90;;;;;;5011532;28;20177;-84
2023/05/12 03:17:07;;;;;;;7.73;5.20;;;13.20;99.90;;;;;;5011396;28;20559;-84
2023/05/12 03:19:33;;;;;;;5.00;4.50;;;13.20;99.90;;;;;;5028073;28;20258;-85
2023/05/12 03:21:59;;;;;;;4.60;4.20;;;13.20;99.90;;;;;;5012746;28;20201;-85
2023/05/12 03:24:25;;;;;;;5.43;3.93;;;13.20;99.90;;;;;;5011260;28;20750;-84
2023/05/12 03:26:51;;;;;;;5.93;4.53;;;13.20;99.90;;;;;;5012407;28;20235;-85
2023/05/12 03:29:16;;;;;;;5.83;4.13;;;13.20;99.90;;;;;;5012690;28;20185;-84
2023/05/12 03:31:42;;;;;;;5.27;4.37;;;13.20;99.90;;;;;;5011797;28;20632;-85
2023/05/12 03:34:07;;;;;;;3.80;3.50;;;13.20;99.90;;;;;;5012832;28;20229;-85
2023/05/12 03:36:33;;;;;;;4.17;3.77;;;13.20;99.90;;;;;;5012912;28;20708;-84
2023/05/12 03:38:58;;;;;;;4.17;3.63;;;13.20;99.90;;;;;;5012768;28;20197;-84
2023/05/12 03:41:24;;;;;;;7.50;4.10;;;13.20;99.90;;;;;;5011501;28;20185;-84
2023/05/12 03:43:49;;;;;;;4.67;4.27;;;13.20;99.90;;;;;;5027878;28;20179;-84
2023/05/12 03:46:15;;;;;;;4.80;4.03;;;13.10;99.90;;;;;;5027925;28;20356;-84
2023/05/12 03:48:41;;;;;;;5.17;4.10;;;13.10;99.90;;;;;;5011614;28;20276;-84
2023/05/12 03:51:06;;;;;;;4.70;4.27;;;13.10;99.90;;;;;;5012763;28;20319;-84
2023/05/12 03:53:32;;;;;;;4.80;4.30;;;13.00;99.90;;;;;;5011452;28;20178;-84
2023/05/12 03:56:02;;;;;;;5.43;4.73;;;13.00;99.90;;;;;;5027759;28;20173;-84
2023/05/12 03:58:27;;;;;;;5.17;4.10;;;13.00;99.90;;;;;;5029676;28;20187;-84
2023/05/12 04:00:55;;;;;;;6.13;4.40;;;13.00;99.90;;;;;;5014260;28;20201;-84
2023/05/12 04:03:21;;;;;;;5.67;5.07;;;13.00;99.90;;;;;;5013139;28;20557;-84
2023/05/12 04:05:46;;;;;;;8.87;5.33;;;13.10;99.90;;;;;;5014081;28;20214;-84
2023/05/12 04:08:12;;;;;;;6.97;5.70;;;13.00;99.90;;;;;;5013217;28;20291;-84
2023/05/12 04:10:41;;;;;;;9.60;5.77;;;13.00;99.90;;;;;;5014025;28;20216;-84
2023/05/12 04:13:07;;;;;;;10.40;6.07;;;13.00;99.90;;;;;;5012969;28;20648;-83
2023/05/12 04:15:34;;;;;;;8.30;6.20;;;13.00;99.90;;;;;;5027064;28;20212;-84
2023/05/12 04:18:01;;;;;;;6.70;6.00;;;13.00;99.90;;;;;;5026708;28;20268;-85
2023/05/12 04:20:26;;;;;;;8.10;6.57;;;13.00;99.90;;;;;;5010110;28;20212;-85
2023/05/12 04:22:52;;;;;;;9.90;6.83;;;13.00;99.90;;;;;;5011732;28;20177;-85
2023/05/12 04:25:17;;;;;;;8.97;6.00;;;13.00;99.90;;;;;;5026797;28;20275;-83
2023/05/12 04:27:43;;;;;;;7.93;6.57;;;12.90;99.90;;;;;;5010150;28;20330;-84
2023/05/12 04:30:08;;;;;;;7.83;6.27;;;13.00;99.90;;;;;;5010163;28;20226;-84
2023/05/12 04:32:35;;;;;;;7.30;6.53;;;13.00;99.90;;;;;;5009758;28;20241;-84
2023/05/12 04:35:00;;;;;;;9.93;6.10;;;13.00;99.90;;;;;;5010888;28;20181;-84
2023/05/12 04:37:26;;;;;;;7.27;6.17;;;13.00;99.90;;;;;;5011591;28;20170;-85
2023/05/12 04:39:52;;;;;;;8.07;6.27;;;13.00;99.90;;;;;;5013123;28;20207;-85
2023/05/12 04:42:17;;;;;;;8.37;6.13;;;13.10;99.90;;;;;;5011543;28;20177;-82
2023/05/12 04:44:44;;;;;;;7.17;5.80;;;13.00;99.90;;;;;;5013750;28;20241;-83
2023/05/12 04:47:10;;;;;;;7.63;5.20;;;13.00;99.90;;;;;;5013163;28;20260;-82
2023/05/12 04:49:36;;;;;;;5.67;5.07;;;13.00;99.90;;;;;;5027229;28;20250;-82
2023/05/12 04:52:02;;;;;;;9.90;5.00;;;13.00;99.90;;;;;;5012480;28;20204;-80
2023/05/12 04:54:28;;;;;;;5.53;4.43;;;13.00;99.90;;;;;;5012949;28;20172;-81
2023/05/12 04:56:53;;;;;;;8.90;3.90;;;13.00;99.90;;;;;;5013600;28;20264;-79
2023/05/12 04:59:19;;;;;;;6.80;3.73;;;12.90;99.90;;;;;;5014359;28;20243;-80
2023/05/12 05:01:45;;;;;;;4.40;3.70;;;13.00;99.90;;;;;;5026703;28;20263;-80
2023/05/12 05:04:10;;;;;;;3.90;3.30;;;13.00;99.90;;;;;;5032545;28;20195;-80
2023/05/12 05:06:36;;;;;;;4.60;3.47;;;13.00;99.90;;;;;;5033123;28;20260;-80
2023/05/12 05:09:01;;;;;;;12.77;3.80;;;13.00;99.90;;;;;;5033061;28;20528;-80
2023/05/12 05:11:27;;;;;;;4.17;2.80;;;13.00;99.90;;;;;;5032360;28;20283;-80
2023/05/12 05:13:52;;;;;;;5.77;2.80;;;13.00;99.90;;;;;;5016298;28;20250;-80
2023/05/12 05:16:18;;;;;;;4.73;2.87;;;13.10;99.90;;;;;;5014907;28;20169;-80
2023/05/12 05:18:46;;;;;;;3.33;2.60;;;13.10;99.90;;;;;;5012516;28;20183;-80
2023/05/12 05:21:15;;;;;;;4.37;2.33;;;13.10;99.90;;;;;;5012735;28;20664;-80
2023/05/12 05:23:41;;;;;;;5.83;2.40;;;13.10;99.90;;;;;;5026690;28;20191;-81
2023/05/12 05:26:07;;;;;;;3.40;2.60;;;13.10;99.90;;;;;;5031721;28;20176;-80
2023/05/12 05:28:33;;;;;;;3.97;2.10;;;13.10;99.90;;;;;;5032493;28;20173;-81
2023/05/12 05:30:59;;;;;;;5.90;2.50;;;13.20;99.90;;;;;;5030916;28;20206;-81
2023/05/12 05:33:24;;;;;;;4.03;2.67;;;13.10;99.90;;;;;;5031709;28;20540;-81
2023/05/12 05:35:50;;;;;;;5.33;2.70;;;13.20;99.90;;;;;;5026689;28;20201;-79
2023/05/12 05:38:16;;;;;;;4.43;2.37;;;13.20;99.90;;;;;;5019869;28;20279;-80
2023/05/12 05:40:41;;;;;;;6.43;2.57;;;13.20;99.90;;;;;;5015525;28;20205;-80
2023/05/12 05:43:07;;;;;;;3.40;2.37;;;13.20;99.90;;;;;;5011342;28;20172;-80
2023/05/12 05:45:32;;;;;;;6.67;2.80;;;13.20;99.90;;;;;;5049077;28;20207;-80
2023/05/12 05:47:58;;;;;;;9.90;3.13;;;13.10;99.90;;;;;;5050426;28;20184;-80
2023/05/12 05:50:24;;;;;;;3.17;2.07;;;13.10;99.90;;;;;;5051164;28;20564;-80
2023/05/12 05:52:49;;;;;;;3.87;2.43;;;13.10;99.90;;;;;;5050341;28;20168;-80
2023/05/12 05:55:15;;;;;;;6.23;2.23;;;13.20;99.90;;;;;;5037872;28;20671;-80
2023/05/12 05:57:41;;;;;;;4.53;2.77;;;13.20;99.90;;;;;;5047136;28;20216;-79
2023/05/12 06:00:08;;;;;;;5.33;2.83;;;13.20;99.90;;;;;;5034040;28;20242;-79
2023/05/12 06:02:34;;;;;;;3.67;2.60;;;13.20;99.90;;;;;;5061899;28;20187;-80
2023/05/12 06:05:00;;;;;;;4.83;2.77;;;13.30;99.90;;;;;;5059855;28;20660;-80
2023/05/12 06:07:26;;;;;;;3.90;2.70;;;13.30;99.90;;;;;;5036542;28;20179;-80
2023/05/12 06:09:54;;;;;;;3.17;2.60;;;13.30;99.90;;;;;;5035110;28;20195;-80
2023/05/12 06:12:20;;;;;;;2.70;2.50;;;13.30;99.90;;;;;;5034555;28;20220;-80
2023/05/12 06:14:46;;;;;;;4.93;2.93;;;13.40;99.90;;;;;;5023726;28;20193;-79
2023/05/12 06:17:11;;;;;;;4.57;2.90;;;13.30;99.90;;;;;;5032047;28;20185;-79
2023/05/12 06:19:37;;;;;;;4.80;3.27;;;13.30;99.90;;;;;;5052254;28;20196;-79
2023/05/12 06:22:03;;;;;;;4.63;3.10;;;13.30;99.90;;;;;;5047530;28;20185;-80
2023/05/12 06:24:28;;;;;;;4.23;2.57;;;13.30;99.90;;;;;;5034656;28;20547;-80
2023/05/12 06:26:55;;;;;;;3.80;2.43;;;13.30;99.90;;;;;;5033418;28;20181;-79
2023/05/12 06:29:21;;;;;;;5.43;3.03;;;13.40;99.90;;;;;;5031812;28;20196;-80
2023/05/12 06:31:46;;;;;;;3.63;3.00;;;13.40;99.90;;;;;;5032759;28;20196;-78
2023/05/12 06:34:31;;;;;;;3.20;2.90;;;13.40;99.90;;;;;;5030850;28;20210;-80
2023/05/12 06:37:05;;;;;;;5.77;3.13;;;13.50;99.90;;;;;;5028491;28;20161;-82
2023/05/12 06:39:47;;;;;;;3.43;3.13;;;13.50;99.90;;;;;;5030226;28;20207;-83
2023/05/12 06:42:33;;;;;;;3.97;3.30;;;13.40;99.90;;;;;;5028488;28;20169;-82
2023/05/12 06:45:05;;;;;;;4.93;3.40;;;13.20;99.90;;;;;;5035654;28;20207;-82
2023/05/12 06:47:32;;;;;;;3.67;3.37;;;13.50;99.90;;;;;;5028670;28;20183;-83
2023/05/12 06:49:57;;;;;;;6.97;3.03;;;14.10;99.90;;;;;;5031847;28;20341;-82
2023/05/12 06:52:23;;;;;;;4.17;3.53;;;13.60;99.90;;;;;;5031747;28;20239;-83
2023/05/12 06:54:49;;;;;;;3.93;3.40;;;13.70;99.90;;;;;;5033165;28;20202;-82
2023/05/12 06:57:15;;;;;;;10.57;3.30;;;13.50;99.90;;;;;;5035260;28;20195;-82
2023/05/12 06:59:40;;;;;;;4.03;3.30;;;13.60;99.90;;;;;;5036767;28;20185;-82
2023/05/12 07:02:06;;;;;;;4.80;2.90;;;13.60;99.90;;;;;;5035266;28;20219;-82
2023/05/12 07:04:31;;;;;;;3.40;3.10;;;13.60;99.90;;;;;;5036932;28;20176;-82
2023/05/12 07:06:57;;;;;;;7.10;3.67;;;13.70;99.90;;;;;;5035026;28;20180;-80
2023/05/12 07:09:22;;;;;;;4.77;3.43;;;13.70;99.90;;;;;;5034648;28;20554;-82
2023/05/12 07:11:48;;;;;;;6.13;3.13;;;13.80;99.90;;;;;;5035933;28;20249;-81
2023/05/12 07:14:13;;;;;;;3.57;3.00;;;13.80;99.90;;;;;;5034887;28;20176;-82
2023/05/12 07:16:39;;;;;;;3.93;3.50;;;13.80;99.90;;;;;;5036582;28;20267;-82
2023/05/12 07:19:07;;;;;;;4.07;2.90;;;13.80;99.90;;;;;;5036599;28;20273;-82
2023/05/12 07:21:33;;;;;;;7.30;3.63;;;13.80;99.90;;;;;;5036284;28;20176;-82
2023/05/12 07:23:58;;;;;;;5.93;3.40;;;13.90;99.90;;;;;;5035636;28;20240;-82
2023/05/12 07:26:25;;;;;;;6.80;3.40;;;13.80;99.90;;;;;;5035802;28;20574;-82
2023/05/12 07:28:51;;;;;;;7.20;3.20;;;13.80;99.90;;;;;;5035375;28;20164;-82
2023/05/12 07:31:17;;;;;;;4.53;2.90;;;13.90;99.90;;;;;;5035606;28;20260;-82
2023/05/12 07:33:43;;;;;;;4.10;3.00;;;13.90;99.90;;;;;;5034234;28;20340;-82
2023/05/12 07:36:08;;;;;;;10.40;3.47;;;13.90;99.90;;;;;;5035273;28;20176;-82
2023/05/12 07:38:34;;;;;;;3.50;3.20;;;13.90;99.90;;;;;;5035859;28;20275;-81
2023/05/12 07:41:00;;;;;;;3.90;2.90;;;13.90;99.90;;;;;;5034056;28;20183;-81
2023/05/12 07:43:26;;;;;;;4.90;2.90;;;13.90;99.90;;;;;;5035067;28;20169;-81
2023/05/12 07:45:51;;;;;;;3.63;3.07;;;13.90;99.90;;;;;;5035069;28;20176;-82
2023/05/12 07:48:17;;;;;;;4.40;3.07;;;14.00;99.90;;;;;;5033793;28;20180;-82
2023/05/12 07:50:42;;;;;;;3.77;3.20;;;14.00;99.90;;;;;;5032613;28;20231;-80
2023/05/12 07:53:08;;;;;;;3.97;2.97;;;14.00;99.90;;;;;;5032455;28;20183;-80
2023/05/12 07:55:33;;;;;;;5.33;3.10;;;14.00;99.90;;;;;;5034482;28;20165;-80
2023/05/12 07:57:59;;;;;;;5.03;3.10;;;14.00;99.90;;;;;;5034118;28;20180;-80
2023/05/12 08:00:25;;;;;;;2.83;2.53;;;14.10;99.90;;;;;;5033015;28;20584;-80
2023/05/12 08:02:51;;;;;;;3.47;2.77;;;14.10;99.90;;;;;;5034245;28;20181;-79
2023/05/12 08:05:17;;;;;;;5.80;3.37;;;14.10;99.90;;;;;;5034315;28;20187;-80
2023/05/12 08:07:42;;;;;;;3.30;2.97;;;14.10;99.90;;;;;;5033558;28;20259;-79
2023/05/12 08:10:12;;;;;;;5.03;3.07;;;14.10;99.90;;;;;;5034839;28;20192;-80
2023/05/12 08:12:39;;;;;;;4.57;3.20;;;14.10;99.90;;;;;;5034729;28;20200;-80
2023/05/12 08:15:17;;;;;;;3.40;2.63;;;14.10;99.90;;;;;;5034070;28;20306;-80
2023/05/12 08:17:42;;;;;;;3.57;2.87;;;14.10;99.90;;;;;;5034882;28;20169;-80
2023/05/12 08:20:09;;;;;;;5.03;2.90;;;14.10;99.90;;;;;;5034268;28;20217;-81
2023/05/12 08:22:35;;;;;;;2.83;2.50;;;14.20;99.90;;;;;;5035036;28;20196;-82
2023/05/12 08:25:00;;;;;;;4.30;2.93;;;14.20;99.90;;;;;;5034789;28;20628;-82
2023/05/12 08:27:26;;;;;;;3.47;3.10;;;14.20;99.90;;;;;;5034435;28;20236;-82
2023/05/12 08:29:51;;;;;;;7.90;3.00;;;14.20;99.90;;;;;;5032527;28;20195;-81
2023/05/12 08:32:17;;;;;;;3.73;2.90;;;14.30;99.90;;;;;;5032745;28;20192;-82
2023/05/12 08:34:42;;;;;;;4.80;3.10;;;14.30;99.90;;;;;;5032542;28;20188;-82
2023/05/12 08:37:08;;;;;;;3.70;2.60;;;14.30;99.90;;;;;;5033013;28;20259;-82
2023/05/12 08:39:34;;;;;;;3.13;2.80;;;14.40;99.90;;;;;;5033898;28;20357;-83
2023/05/12 08:42:08;;;;;;;6.13;2.80;;;14.40;99.90;;;;;;5032119;28;20176;-85
2023/05/12 08:44:35;;;;;;;6.43;2.90;;;14.40;99.90;;;;;;5031605;28;20178;-85
2023/05/12 08:47:04;;;;;;;4.17;2.47;;;14.50;99.90;;;;;;5033657;28;20212;-84
2023/05/12 08:49:31;;;;;;;2.60;2.40;;;14.60;99.90;;;;;;5032606;28;20674;-82
2023/05/12 08:52:01;;;;;;;3.10;2.80;;;14.70;99.90;;;;;;5035268;28;20196;-82
2023/05/12 08:54:28;;;;;;;4.67;3.03;;;14.70;99.90;;;;;;5033940;28;20228;-83
2023/05/12 08:56:54;;;;;;;3.93;2.17;;;14.70;99.90;;;;;;5033699;28;20184;-82
2023/05/12 08:59:20;;;;;;;6.13;2.40;;;14.70;99.90;;;;;;5032772;28;20575;-83
2023/05/12 09:01:47;;;;;;;6.93;2.80;;;14.80;99.90;;;;;;5032915;28;20183;-83
2023/05/12 09:04:16;;;;;;;4.27;2.47;;;14.90;99.90;;;;;;5034815;28;20659;-83
2023/05/12 09:06:43;;;;;;;5.57;2.40;;;15.00;99.90;;;;;;5034670;28;20184;-83
2023/05/12 09:09:09;;;;;;;7.57;2.47;;;15.00;99.90;;;;;;5035783;28;20193;-83
2023/05/12 09:11:34;;;;;;;5.17;2.43;;;15.10;99.90;;;;;;5033254;28;20204;-83
2023/05/12 09:14:03;;;;;;;4.37;2.50;;;15.20;99.90;;;;;;5033824;28;20191;-83
2023/05/12 09:16:38;;;;;;;2.83;2.10;;;15.30;99.90;;;;;;5035876;28;20685;-83
2023/05/12 09:19:04;;;;;;;3.67;2.40;;;15.40;99.90;;;;;;5034296;28;20195;-83
2023/05/12 09:21:30;;;;;;;3.60;2.03;;;15.40;99.90;;;;;;5036430;28;20179;-83
2023/05/12 09:24:05;;;;;;;3.33;2.43;;;15.50;99.90;;;;;;5036461;28;20267;-83
2023/05/12 09:26:42;;;;;;;4.03;2.10;;;15.60;99.90;;;;;;5037032;28;20152;-83
2023/05/12 09:29:08;;;;;;;4.27;2.30;;;15.80;99.90;;;;;;5035463;28;20624;-82
2023/05/12 09:31:34;;;;;;;3.93;2.27;;;15.80;99.90;;;;;;5036449;28;20264;-83
2023/05/12 09:34:01;;;;;;;3.70;2.00;;;15.90;99.90;;;;;;5036942;28;20172;-83
2023/05/12 09:36:26;;;;;;;5.80;3.03;;;16.00;99.90;;;;;;5036181;28;20535;-83
2023/05/12 09:39:03;;;;;;;3.50;2.40;;;16.00;99.90;;;;;;5035750;28;20216;-83
2023/05/12 09:41:39;;;;;;;5.27;2.43;;;16.10;99.90;;;;;;5038895;28;20160;-83
2023/05/12 09:44:07;;;;;;;4.07;2.10;;;16.30;99.90;;;;;;5038431;28;20188;-83
2023/05/12 09:46:33;;;;;;;2.63;1.87;;;16.30;99.90;;;;;;5036845;28;20184;-84
2023/05/12 09:48:59;;;;;;;4.43;2.10;;;16.40;99.90;;;;;;5038836;28;20271;-84
2023/05/12 09:51:25;;;;;;;2.30;1.90;;;16.50;99.90;;;;;;5037662;28;20260;-83
2023/05/12 09:53:52;;;;;;;6.37;2.07;;;16.50;99.90;;;;;;5039271;28;20183;-84
2023/05/12 09:56:18;;;;;;;4.33;2.10;;;16.60;99.90;;;;;;5034952;28;20236;-84
2023/05/12 09:58:46;;;;;;;3.53;2.10;;;16.50;99.90;;;;;;5032223;28;20176;-84
2023/05/12 10:01:16;;;;;;;1.90;1.70;;;16.60;99.90;;;;;;5031443;28;20648;-83
2023/05/12 10:03:43;;;;;;;4.47;2.17;;;16.70;99.90;;;;;;5032812;28;20173;-84
2023/05/12 10:06:13;;;;;;;3.93;2.23;;;16.70;99.90;;;;;;5031081;28;20245;-84
2023/05/12 10:08:52;;;;;;;3.27;2.33;;;16.70;99.90;;;;;;5032488;28;20271;-84
2023/05/12 10:11:18;;;;;;;5.93;2.23;;;16.80;99.90;;;;;;5032572;28;20199;-84
2023/05/12 10:13:44;;;;;;;7.47;2.17;;;16.80;99.90;;;;;;5031012;28;20192;-84
2023/05/12 10:16:09;;;;;;;3.10;2.00;;;16.80;99.90;;;;;;5032920;28;20195;-84
2023/05/12 10:18:35;;;;;;;4.77;2.20;;;16.80;99.90;;;;;;5031292;28;20309;-84
2023/05/12 10:21:02;;;;;;;4.47;2.20;;;16.80;99.90;;;;;;5032955;28;20168;-84
2023/05/12 10:23:28;;;;;;;2.90;1.90;;;16.90;99.90;;;;;;5031474;28;20177;-84
2023/05/12 10:26:00;;;;;;;4.60;2.00;;;16.90;99.90;;;;;;5033863;28;20210;-84
2023/05/12 10:28:26;;;;;;;4.10;2.10;;;16.90;99.90;;;;;;5032200;28;20175;-84
2023/05/12 10:30:53;;;;;;;3.23;2.00;;;16.80;99.90;;;;;;5033962;28;20655;-84
2023/05/12 10:33:19;;;;;;;10.40;2.53;;;16.90;99.90;;;;;;5035947;28;20204;-84
2023/05/12 10:35:44;;;;;;;7.17;2.67;;;16.90;99.90;;;;;;5037871;28;20176;-84
2023/05/12 10:38:12;;;;;;;6.53;2.50;;;17.00;99.90;;;;;;5036234;28;20198;-84
2023/05/12 10:41:00;;;;;;;9.70;3.23;;;17.10;99.90;;;;;;5038180;28;20679;-84
2023/05/12 10:43:27;;;;;;;5.77;2.20;;;17.20;99.90;;;;;;5039244;28;20187;-84
2023/05/12 10:46:19;;;;;;;8.43;3.07;;;17.20;99.90;;;;;;5038208;28;20255;-84
2023/05/12 10:49:02;;;;;;;2.17;1.93;;;17.30;99.90;;;;;;5040276;28;20184;-84
2023/05/12 10:51:33;;;;;;;5.07;1.97;;;17.50;99.90;;;;;;5040989;28;20240;-84
2023/05/12 10:54:06;;;;;;;4.07;2.00;;;17.30;99.90;;;;;;5046481;28;20160;-84
2023/05/12 10:56:38;;;;;;;2.10;1.80;;;17.30;99.90;;;;;;5054107;28;20222;-82
2023/05/12 10:59:25;;;;;;;2.00;1.60;;;17.40;99.90;;;;;;5050108;28;20200;-84
2023/05/12 11:02:02;;;;;;;3.43;2.00;;;17.50;99.90;;;;;;5032589;28;20168;-84
2023/05/12 11:04:55;;;;;;;1.70;1.60;;;17.50;99.90;;;;;;5032564;28;20172;-84
2023/05/12 11:07:25;;;;;;;5.67;2.13;;;17.50;99.90;;;;;;5035567;28;20193;-84
2023/05/12 11:09:50;;;;;;;4.80;2.30;;;17.50;99.90;;;;;;5032065;28;20235;-84
2023/05/12 11:12:16;;;;;;;6.70;2.37;;;17.50;99.90;;;;;;5031568;28;20235;-85
2023/05/12 11:14:43;;;;;;;4.60;2.07;;;17.50;99.90;;;;;;5031925;28;20545;-85
2023/05/12 11:17:10;;;;;;;3.33;2.07;;;17.40;99.90;;;;;;5032092;28;20173;-84
2023/05/12 11:19:37;;;;;;;3.73;1.90;;;17.40;99.90;;;;;;5031942;28;20627;-84
2023/05/12 11:22:07;;;;;;;4.37;2.00;;;17.50;99.90;;;;;;5032144;28;20230;-84
2023/05/12 11:24:34;;;;;;;4.03;2.43;;;17.50;99.90;;;;;;5033350;28;20212;-85
2023/05/12 11:26:59;;;;;;;3.03;2.30;;;17.50;99.90;;;;;;5032957;28;20259;-84
2023/05/12 11:29:25;;;;;;;3.83;2.20;;;17.50;99.90;;;;;;5032153;28;20279;-84
2023/05/12 11:31:51;;;;;;;3.00;2.07;;;17.60;99.90;;;;;;5031501;28;20575;-84
2023/05/12 11:34:24;;;;;;;3.77;1.83;;;17.70;99.90;;;;;;5032849;28;20590;-84
2023/05/12 11:36:52;;;;;;;2.50;2.07;;;17.70;99.90;;;;;;5031797;28;20183;-85
2023/05/12 11:39:22;;;;;;;4.03;1.97;;;17.70;99.90;;;;;;5033132;28;20699;-84
2023/05/12 11:41:49;;;;;;;3.47;2.27;;;17.80;99.90;;;;;;5031226;28;20194;-83
2023/05/12 11:44:19;;;;;;;3.47;2.10;;;17.90;99.90;;;;;;5025036;28;20193;-83
2023/05/12 11:46:54;;;;;;;3.50;1.97;;;18.00;99.90;;;;;;5022228;28;20584;-84
2023/05/12 11:49:20;;;;;;;5.43;2.10;;;18.00;99.90;;;;;;5032209;28;20200;-84
2023/05/12 11:51:45;;;;;;;2.07;1.93;;;18.10;99.90;;;;;;5031604;28;20204;-85
2023/05/12 11:54:11;;;;;;;5.27;1.90;;;18.20;99.90;;;;;;5025405;28;20185;-84
2023/05/12 11:56:36;;;;;;;3.77;2.00;;;18.30;99.90;;;;;;5011556;28;20169;-84
2023/05/12 11:59:02;;;;;;;3.77;1.83;;;18.40;99.90;;;;;;5010285;28;20236;-84
2023/05/12 12:01:28;;;;;;;4.13;2.13;;;18.50;99.90;;;;;;5010519;28;20181;-84
2023/05/12 12:03:54;;;;;;;2.70;2.00;;;18.60;99.90;;;;;;5012415;28;20258;-84
2023/05/12 12:06:21;;;;;;;2.90;2.10;;;18.70;99.90;;;;;;5011767;28;20557;-84
2023/05/12 12:08:55;;;;;;;4.13;2.20;;;18.70;1.00;;;;;;5012948;28;20181;-84
2023/05/12 12:11:22;;;;;;;6.60;2.10;;;18.60;1.00;;;;;;5012094;28;20611;-85
2023/05/12 12:13:55;;;;;;;2.67;1.70;;;18.60;99.90;;;;;;5013273;28;20193;-84
2023/05/12 12:16:28;;;;;;;2.90;2.10;;;18.60;99.90;;;;;;5013197;28;20165;-84
2023/05/12 12:18:54;;;;;;;5.00;2.13;;;18.60;1.00;;;;;;5011347;28;20173;-85
2023/05/12 12:21:21;;;;;;;2.23;1.70;;;18.60;99.90;;;;;;5013126;28;20260;-84
2023/05/12 12:23:47;;;;;;;4.57;2.10;;;18.70;99.90;;;;;;5011339;28;20180;-84
2023/05/12 12:26:15;;;;;;;2.50;1.97;;;18.70;1.00;;;;;;5011713;28;20230;-84
2023/05/12 12:28:41;;;;;;;2.60;2.00;;;18.60;18.80;;;;;;5013704;28;20263;-84
2023/05/12 12:31:07;;;;;;;2.73;2.13;;;18.60;1.00;;;;;;5013131;28;20201;-86
2023/05/12 12:33:32;;;;;;;2.50;2.27;;;18.60;1.00;;;;;;5014032;28;20165;-84
2023/05/12 12:35:58;;;;;;;1.90;1.70;;;18.70;1.00;;;;;;5013460;28;20180;-84
2023/05/12 12:38:23;;;;;;;6.83;2.13;;;18.70;99.90;;;;;;5013177;28;20180;-84
2023/05/12 12:40:49;;;;;;;7.57;2.47;;;18.70;99.90;;;;;;5012706;28;20192;-83
2023/05/12 12:43:15;;;;;;;4.37;2.30;;;18.70;1.00;;;;;;5011581;28;20181;-84
2023/05/12 12:45:40;;;;;;;2.50;2.07;;;18.60;99.90;;;;;;5012343;28;20184;-84